Аэропорт: Пашковский. Краснодар

ICAO: URKK

METAR:
2021-01-27 04:30:00
URKK 270430Z 08003MPS CAVOK 05/01 Q1009 R23L/19//65 NOSIG RMK QFE753
METAR:
2021-01-27 01:56:00
TAF URKK 270156Z 2703/2803 10006G11MPS 9999 SCT040CB